COOK1: Arkansas River Nr Coolidge, KS

                                SHEF ID:       COOK1     ARKANSAS R NR COOLIDGE, KS
STATION TYPE:
Regulating: Stage = 8.00, Flow = 2041

PRECIP STAGE STAGE(2) RIV-FLOW WTR-TEMP CONDUCT BAT-LOAD
in ft ft cfs F umho/cm volt
Ccp-Rev Ccp-Rev Ccp-Rev Ccp-Rev Ccp-Rev Ccp-Rev Ccp-Rev
(America/Chicago)
08/17 00:00 0.00 2.76 2.76 73 76.64 6048 12.95
08/17 01:00 0.00 2.76 2.79 73 75.67 6066 12.89
08/17 02:00 0.00 2.76 2.76 73 74.70 6080 12.89
08/17 03:00 0.00 2.75 2.75 72 73.76 6084 12.89
08/17 04:00 0.00 2.74 2.75 71 72.90 6088 12.89
08/17 05:00 0.00 2.74 2.75 71 71.87 6104 12.89
08/17 06:00 0.00 2.75 2.76 72 71.04 6113 12.83
08/17 07:00 0.00 2.74 2.78 71 70.21 6100 12.83
08/17 08:00 0.00 2.76 2.77 73 69.55 6109 12.83
08/17 09:00 0.00 2.77 2.79 74 69.53 6122 12.89
08/17 10:00 0.00 2.77 2.66 74 70.59 6116 13.24
08/17 11:00 0.00 2.79 2.67 76 72.61 6091 13.71
08/17 12:00 0.00 2.75 2.78 72 75.20 6080 13.77
08/17 13:00 0.00 2.78 2.82 75 77.92 6082 13.77
08/17 14:00 0.00 2.78 2.82 75 80.47 6066 13.77
08/17 15:00 0.00 2.79 2.81 76 82.54 6046 13.30
08/17 16:00 0.00 2.78 2.82 75 83.89 6028 13.53
08/17 17:00 0.00 2.77 2.80 74 84.67 6052 13.48
08/17 18:00 0.00 2.77 2.80 74 84.61 5998 13.30
08/17 19:00 0.00 2.77 2.80 74 83.80 5999 13.18
08/17 20:00 0.00 2.76 2.78 73 82.24 5996 13.12
08/17 21:00 0.00 2.78 2.62 75 80.85 5990 13.07
08/17 22:00 0.00 2.79 2.64 76 79.61 5985 13.00
08/17 23:00 ---- ---- ---- ---- ---- ---- ----
Data processed at Sun 18Aug2024 04:30 GMT

Parsing this webpage?

Checkout our new Data API! CWMSDataAPI (CDA)

Timeseries IDs (TSIDs)

TSIDs used from left to right in the data table
COOL.Precip-Inc.Total.1Hour.1Hour.Ccp-Rev
COOL.Stage.Inst.1Hour.0.Ccp-Rev
COOL.Stage-Alt.Inst.1Hour.0.Ccp-Rev
COOL.Flow.Inst.1Hour.0.Ccp-Rev
COOL.Temp-Water.Inst.1Hour.0.Ccp-Rev
COOL.Cond.Inst.1Hour.0.Ccp-Rev
COOL.Volt-Battery Load.Inst.1Hour.0.Ccp-Rev

                            

All information presented herein is the property of the government of the United States of America and may be revised or deleted at any time without prior notice. Dissemination of this information without the expressed written consent of the Public Affairs Office, Tulsa District U.S. Army Corps of Engineers is strictly prohibited. These data are gathered electronically and, as presented, have NOT undergone any form of quality control. These data are NOT guaranteed to be valid or correct.